TimeCDT,TemperatureF,Dew PointF,Humidity,Sea Level PressureIn,VisibilityMPH,Wind Direction,Wind SpeedMPH,Gust SpeedMPH,PrecipitationIn,Events,Conditions,WindDirDegrees,DateUTC
12:53 AM,72.0,69.1,91,29.97,10.0,East,4.6,-,N/A,,Clear,90,2013-10-02 05:53:00
1:53 AM,72.0,69.1,91,29.96,10.0,ENE,4.6,-,N/A,,Clear,70,2013-10-02 06:53:00
2:53 AM,71.1,69.1,93,29.96,8.0,East,3.5,-,N/A,,Clear,80,2013-10-02 07:53:00
3:53 AM,71.1,69.1,93,29.96,8.0,East,5.8,-,N/A,,Overcast,80,2013-10-02 08:53:00
4:51 AM,71.6,69.8,94,29.98,9.0,ENE,3.5,-,N/A,,Mostly Cloudy,60,2013-10-02 09:51:00
4:53 AM,71.1,69.1,93,29.97,9.0,ENE,4.6,-,N/A,,Mostly Cloudy,60,2013-10-02 09:53:00
5:02 AM,71.6,69.8,94,29.99,9.0,NE,4.6,-,N/A,,Scattered Clouds,50,2013-10-02 10:02:00
5:53 AM,71.1,69.1,93,29.97,9.0,NE,4.6,-,N/A,,Mostly Cloudy,50,2013-10-02 10:53:00
6:53 AM,72.0,69.1,91,29.99,10.0,East,3.5,-,N/A,,Overcast,90,2013-10-02 11:53:00
7:53 AM,73.0,69.1,87,30.00,10.0,East,4.6,-,N/A,,Overcast,100,2013-10-02 12:53:00
8:00 AM,73.4,69.8,88,30.01,10.0,ESE,5.8,-,N/A,,Mostly Cloudy,110,2013-10-02 13:00:00
8:53 AM,75.0,70.0,84,30.01,10.0,ESE,3.5,-,N/A,,Mostly Cloudy,110,2013-10-02 13:53:00
9:53 AM,77.0,69.1,76,30.01,10.0,SE,6.9,-,N/A,,Scattered Clouds,130,2013-10-02 14:53:00
10:17 AM,77.0,69.8,78,30.03,10.0,ESE,6.9,-,N/A,,Overcast,120,2013-10-02 15:17:00
10:53 AM,78.1,69.1,74,30.02,10.0,ESE,4.6,-,N/A,,Overcast,110,2013-10-02 15:53:00
11:53 AM,82.9,70.0,65,30.00,10.0,SE,6.9,-,N/A,,Overcast,140,2013-10-02 16:53:00
12:53 PM,84.0,69.1,61,29.98,10.0,South,9.2,-,N/A,,Scattered Clouds,190,2013-10-02 17:53:00
1:53 PM,84.0,69.1,61,29.95,10.0,SSE,6.9,-,N/A,,Partly Cloudy,160,2013-10-02 18:53:00
2:53 PM,88.0,69.1,53,29.92,10.0,South,8.1,-,N/A,,Scattered Clouds,170,2013-10-02 19:53:00
3:53 PM,87.1,66.9,51,29.91,10.0,SSE,6.9,-,N/A,,Mostly Cloudy,150,2013-10-02 20:53:00
4:53 PM,86.0,66.0,51,29.89,10.0,South,6.9,-,N/A,,Clear,180,2013-10-02 21:53:00
5:53 PM,84.9,64.9,51,29.90,10.0,South,8.1,-,N/A,,Clear,180,2013-10-02 22:53:00
6:53 PM,82.9,66.9,58,29.91,10.0,SE,4.6,-,N/A,,Clear,140,2013-10-02 23:53:00
7:53 PM,80.1,66.9,64,29.91,10.0,SE,4.6,-,N/A,,Clear,130,2013-10-03 00:53:00
8:53 PM,78.1,68.0,71,29.93,10.0,ESE,3.5,-,N/A,,Clear,110,2013-10-03 01:53:00
9:53 PM,75.0,68.0,79,29.94,10.0,Calm,Calm,-,N/A,,Clear,0,2013-10-03 02:53:00
10:53 PM,73.9,68.0,82,29.94,10.0,NNE,4.6,-,N/A,,Scattered Clouds,30,2013-10-03 03:53:00
11:53 PM,73.0,68.0,84,29.94,10.0,NE,4.6,-,N/A,,Clear,50,2013-10-03 04:53:00